createdAt,value
2023-03-30T00:01:28.858Z,86020.28
2023-03-30T00:03:56.200Z,86010.75
2023-03-30T00:06:23.709Z,86052.81
2023-03-30T00:08:58.532Z,86066.44
2023-03-30T00:11:28.135Z,86068.59
2023-03-30T00:13:55.608Z,86064.44
2023-03-30T00:16:23.129Z,86058.59
2023-03-30T00:18:50.751Z,86040.28
2023-03-30T00:21:21.549Z,86029.34
2023-03-30T00:23:49.829Z,86056.19
2023-03-30T00:26:17.683Z,86035.78
2023-03-30T00:28:45.215Z,86055.28
2023-03-30T00:31:13.115Z,86051.91
2023-03-30T00:33:45.726Z,86027.03
2023-03-30T00:36:13.974Z,85997.03
2023-03-30T00:38:41.238Z,86042.94
2023-03-30T00:41:09.573Z,86021.50
2023-03-30T00:43:59.591Z,86045.13
2023-03-30T00:46:28.787Z,86038.47
2023-03-30T00:48:59.317Z,86038.47
2023-03-30T00:51:29.337Z,86027.25
2023-03-30T00:54:12.458Z,86021.44
2023-03-30T00:56:40.277Z,86032.75
2023-03-30T00:59:13.682Z,86025.88
2023-03-30T01:01:41.991Z,86039.72
2023-03-30T01:04:12.280Z,85998.28
2023-03-30T01:06:43.735Z,85971.97
2023-03-30T01:09:12.216Z,86033.47
2023-03-30T01:11:39.995Z,86038.34
2023-03-30T01:14:10.547Z,86015.78
2023-03-30T01:16:40.872Z,86033.09
2023-03-30T01:19:44.041Z,86038.69
2023-03-30T01:22:29.746Z,86033.84
2023-03-30T01:25:27.681Z,85970.31
2023-03-30T01:28:06.891Z,85999.63
2023-03-30T01:31:01.920Z,86037.69
2023-03-30T01:33:47.324Z,86041.66
2023-03-30T01:36:32.819Z,86037.66
2023-03-30T01:39:39.917Z,86033.03
2023-03-30T01:42:33.004Z,86019.50
2023-03-30T01:45:20.486Z,86031.72
2023-03-30T01:47:58.857Z,86038.69
2023-03-30T01:50:33.126Z,85988.06
2023-03-30T01:53:08.889Z,86031.09
2023-03-30T01:55:42.224Z,86019.88
2023-03-30T01:58:22.420Z,86033.94
2023-03-30T02:00:51.512Z,86031.09
2023-03-30T02:03:28.604Z,86026.25
2023-03-30T02:06:18.753Z,86035.09
2023-03-30T02:08:49.790Z,86010.59
2023-03-30T02:11:17.042Z,86027.03
2023-03-30T02:13:45.612Z,86039.03
2023-03-30T02:16:18.597Z,85933.75
2023-03-30T02:18:46.655Z,86008.44
2023-03-30T02:21:13.751Z,86042.63
2023-03-30T02:23:45.492Z,86041.22
2023-03-30T02:26:13.856Z,86020.38
2023-03-30T02:28:41.261Z,86032.13
2023-03-30T02:31:17.174Z,86046.47
2023-03-30T02:34:04.521Z,86053.38
2023-03-30T02:37:10.220Z,86058.91
2023-03-30T02:39:59.869Z,86054.59
2023-03-30T02:42:48.249Z,86058.03
2023-03-30T02:45:43.096Z,86048.59
2023-03-30T02:48:38.594Z,86059.63
2023-03-30T02:51:14.950Z,86058.28
2023-03-30T02:54:38.871Z,86056.22
2023-03-30T02:57:53.544Z,86057.44
2023-03-30T03:00:52.427Z,86056.25
2023-03-30T03:03:33.654Z,86064.09
2023-03-30T03:06:02.938Z,86057.97
2023-03-30T03:08:39.917Z,86061.59
2023-03-30T03:11:10.001Z,86031.66
2023-03-30T03:13:37.870Z,86056.16
2023-03-30T03:16:06.311Z,86056.91
2023-03-30T03:18:35.202Z,86040.91
2023-03-30T03:21:02.366Z,86048.16
2023-03-30T03:23:29.832Z,86038.03
2023-03-30T03:25:57.117Z,86039.41
2023-03-30T03:28:24.335Z,86028.44
2023-03-30T03:30:55.924Z,86064.50
2023-03-30T03:33:24.881Z,86069.91
2023-03-30T03:36:01.752Z,86063.09
2023-03-30T03:38:33.517Z,86059.63
2023-03-30T03:41:01.218Z,86048.00
2023-03-30T03:43:30.144Z,86045.31
2023-03-30T03:45:57.301Z,86055.78
2023-03-30T03:48:25.492Z,86050.81
2023-03-30T03:50:54.714Z,86061.38
2023-03-30T03:53:23.370Z,86059.38
2023-03-30T03:55:55.052Z,86053.72
2023-03-30T03:58:22.593Z,86045.41
2023-03-30T04:00:51.235Z,86032.22
2023-03-30T04:03:19.211Z,86060.72
2023-03-30T04:05:46.362Z,86071.81
2023-03-30T04:08:13.478Z,86061.44
2023-03-30T04:10:41.896Z,86063.47
2023-03-30T04:13:24.519Z,86064.88
2023-03-30T04:15:57.501Z,86071.84
2023-03-30T04:18:33.713Z,86078.56
2023-03-30T04:21:30.113Z,86056.41
2023-03-30T04:24:29.916Z,86068.88
2023-03-30T04:27:17.115Z,86074.41
2023-03-30T04:30:06.444Z,86071.66
2023-03-30T04:33:03.084Z,86073.69
2023-03-30T04:35:50.957Z,86079.84
2023-03-30T04:38:59.061Z,86070.00
2023-03-30T04:41:51.353Z,86093.56
2023-03-30T04:44:44.496Z,86090.81
2023-03-30T04:47:20.114Z,86087.97
2023-03-30T04:50:04.419Z,86097.28
2023-03-30T04:52:49.978Z,86098.06
2023-03-30T04:55:32.305Z,86101.03
2023-03-30T04:58:12.140Z,86107.81
2023-03-30T05:00:39.640Z,86090.72
2023-03-30T05:03:27.390Z,86068.44
2023-03-30T05:05:54.919Z,86108.09
2023-03-30T05:08:54.231Z,86115.09
2023-03-30T05:11:44.220Z,86107.47
2023-03-30T05:14:20.428Z,86116.38
2023-03-30T05:17:19.457Z,86132.25
2023-03-30T05:20:01.404Z,86100.34
2023-03-30T05:22:47.121Z,86123.53
2023-03-30T05:25:48.982Z,86112.53
2023-03-30T05:28:34.578Z,86111.31
2023-03-30T05:31:22.919Z,86120.16
2023-03-30T05:34:21.097Z,86044.78
2023-03-30T05:36:54.251Z,86123.72
2023-03-30T05:39:36.417Z,86121.59
2023-03-30T05:42:32.566Z,86106.34
2023-03-30T05:45:08.602Z,86121.00
2023-03-30T05:47:54.804Z,86126.50
2023-03-30T05:50:40.840Z,86081.94
2023-03-30T05:53:12.438Z,86114.00
2023-03-30T05:56:18.069Z,86114.34
2023-03-30T05:59:05.131Z,86131.00
2023-03-30T06:01:54.437Z,86139.41
2023-03-30T06:04:22.493Z,86100.06
2023-03-30T06:06:56.098Z,86131.25
2023-03-30T06:09:24.184Z,86116.00
2023-03-30T06:11:53.905Z,86142.94
2023-03-30T06:14:24.246Z,86147.16
2023-03-30T06:17:17.786Z,86140.81
2023-03-30T06:19:45.064Z,86118.06
2023-03-30T06:22:16.315Z,86147.22
2023-03-30T06:24:48.226Z,86146.41
2023-03-30T06:27:15.312Z,86156.84
2023-03-30T06:29:42.353Z,86107.50
2023-03-30T06:32:09.877Z,86158.84
2023-03-30T06:34:55.303Z,86169.81
2023-03-30T06:37:25.416Z,86107.50
2023-03-30T06:39:52.913Z,86129.75
2023-03-30T06:42:20.007Z,86090.09
2023-03-30T06:45:03.614Z,86105.91
2023-03-30T06:47:31.713Z,86173.44
2023-03-30T06:49:59.242Z,86164.44
2023-03-30T06:52:53.338Z,86182.44
2023-03-30T06:55:21.988Z,86192.06
2023-03-30T06:57:48.952Z,86201.81
2023-03-30T07:00:18.602Z,86199.16
2023-03-30T07:03:20.923Z,86149.13
2023-03-30T07:05:58.668Z,86208.31
2023-03-30T07:08:37.306Z,86192.41
2023-03-30T07:11:07.258Z,86160.22
2023-03-30T07:13:37.370Z,86162.94
2023-03-30T07:16:04.975Z,86192.91
2023-03-30T07:18:32.779Z,86209.03
2023-03-30T07:20:59.870Z,86196.50
2023-03-30T07:23:31.361Z,86142.34
2023-03-30T07:25:58.652Z,86208.13
2023-03-30T07:28:40.665Z,86201.91
2023-03-30T07:31:11.405Z,86180.88
2023-03-30T07:33:41.186Z,86187.47
2023-03-30T07:36:11.707Z,86169.47
2023-03-30T07:38:38.905Z,86166.03
2023-03-30T07:41:10.894Z,86207.31
2023-03-30T07:43:40.793Z,86182.53
2023-03-30T07:46:10.125Z,86210.25
2023-03-30T07:48:40.518Z,86189.63
2023-03-30T07:51:28.551Z,86209.19
2023-03-30T07:54:04.829Z,86202.19
2023-03-30T07:56:46.214Z,86204.38
2023-03-30T07:59:13.738Z,86214.13
2023-03-30T08:01:43.068Z,86225.66
2023-03-30T08:04:18.344Z,86220.28
2023-03-30T08:06:45.767Z,86206.47
2023-03-30T08:09:13.537Z,86227.44
2023-03-30T08:11:41.922Z,86207.91
2023-03-30T08:14:09.147Z,86227.22
2023-03-30T08:16:36.218Z,86222.97
2023-03-30T08:19:03.366Z,86196.53
2023-03-30T08:21:30.334Z,86205.72
2023-03-30T08:23:59.101Z,86230.06
2023-03-30T08:26:26.995Z,86233.56
2023-03-30T08:28:54.202Z,86212.69
2023-03-30T08:31:22.025Z,86228.81
2023-03-30T08:33:49.850Z,86209.31
2023-03-30T08:36:17.006Z,86232.22
2023-03-30T08:38:45.411Z,86234.31
2023-03-30T08:41:29.218Z,86189.88
2023-03-30T08:44:21.659Z,86239.31
2023-03-30T08:46:50.219Z,86224.94
2023-03-30T08:49:19.805Z,86213.09
2023-03-30T08:51:51.308Z,86217.19
2023-03-30T08:54:20.908Z,86189.44
2023-03-30T08:57:08.979Z,86235.41
2023-03-30T08:59:46.813Z,86232.63
2023-03-30T09:02:22.240Z,86234.66
2023-03-30T09:04:57.341Z,86236.09
2023-03-30T09:07:28.091Z,86215.97
2023-03-30T09:09:57.233Z,86226.41
2023-03-30T09:12:40.135Z,86228.66
2023-03-30T09:15:31.774Z,86198.78
2023-03-30T09:18:10.171Z,86219.13
2023-03-30T09:20:40.948Z,86207.44
2023-03-30T09:23:14.093Z,86210.63
2023-03-30T09:26:26.269Z,86215.28
2023-03-30T09:29:03.972Z,86187.41
2023-03-30T09:31:41.633Z,86223.47
2023-03-30T09:34:34.455Z,86215.97
2023-03-30T09:37:06.089Z,86191.00
2023-03-30T09:39:36.295Z,86195.22
2023-03-30T09:42:34.084Z,86211.94
2023-03-30T09:45:16.542Z,86200.78
2023-03-30T09:47:43.852Z,86181.56
2023-03-30T09:50:29.205Z,86192.75
2023-03-30T09:53:10.754Z,86200.56
2023-03-30T09:55:38.454Z,86205.63
2023-03-30T09:58:21.457Z,86217.41
2023-03-30T10:01:14.286Z,86214.09
2023-03-30T10:03:43.095Z,86217.03
2023-03-30T10:06:17.383Z,86215.78
2023-03-30T10:08:52.109Z,86210.34
2023-03-30T10:11:29.501Z,86211.91
2023-03-30T10:13:58.409Z,86172.69
2023-03-30T10:16:29.156Z,86181.72
2023-03-30T10:19:01.570Z,86189.44
2023-03-30T10:21:40.190Z,86200.41
2023-03-30T10:24:23.624Z,86195.69
2023-03-30T10:26:57.490Z,86200.47
2023-03-30T10:29:28.489Z,86155.84
2023-03-30T10:32:17.622Z,86157.41
2023-03-30T10:34:48.250Z,86194.00
2023-03-30T10:37:41.342Z,86198.94
2023-03-30T10:40:19.200Z,86192.25
2023-03-30T10:42:48.165Z,86178.47
2023-03-30T10:45:45.340Z,86194.44
2023-03-30T10:48:12.565Z,86198.00
2023-03-30T10:50:51.165Z,86200.09
2023-03-30T10:53:43.983Z,86205.03
2023-03-30T10:56:53.997Z,86202.41
2023-03-30T10:59:53.015Z,86195.53
2023-03-30T11:02:29.351Z,86188.09
2023-03-30T11:05:12.636Z,86168.75
2023-03-30T11:08:02.683Z,86182.09
2023-03-30T11:10:33.293Z,86184.94
2023-03-30T11:13:12.040Z,86185.69
2023-03-30T11:16:00.976Z,86185.09
2023-03-30T11:18:34.239Z,86158.25
2023-03-30T11:21:46.760Z,86166.47
2023-03-30T11:24:21.815Z,86140.97
2023-03-30T11:27:16.249Z,86174.19
2023-03-30T11:30:16.433Z,86168.69
2023-03-30T11:33:02.364Z,86181.09
2023-03-30T11:35:46.262Z,86166.66
2023-03-30T11:38:16.295Z,86170.19
2023-03-30T11:40:44.027Z,86163.28
2023-03-30T11:43:26.384Z,86158.47
2023-03-30T11:46:27.592Z,86164.69
2023-03-30T11:49:32.365Z,86149.47
2023-03-30T11:52:27.762Z,86156.47
2023-03-30T11:55:16.924Z,86158.50
2023-03-30T11:57:43.875Z,86144.09
2023-03-30T12:00:23.458Z,86144.13
2023-03-30T12:02:56.436Z,86145.50
2023-03-30T12:05:38.169Z,86131.72
2023-03-30T12:08:26.542Z,86136.59
2023-03-30T12:11:07.511Z,86126.28
2023-03-30T12:13:48.402Z,86115.28
2023-03-30T12:16:25.657Z,86109.75
2023-03-30T12:19:03.716Z,86120.81
2023-03-30T12:21:40.221Z,86100.13
2023-03-30T12:24:17.017Z,86126.34
2023-03-30T12:26:55.010Z,86108.41
2023-03-30T12:30:27.698Z,86116.69
2023-03-30T12:33:18.665Z,86100.84
2023-03-30T12:35:53.777Z,86109.13
2023-03-30T12:38:27.409Z,86053.31
2023-03-30T12:41:14.586Z,86085.00
2023-03-30T12:43:47.630Z,86108.44
2023-03-30T12:46:31.282Z,85989.22
2023-03-30T12:49:08.166Z,86118.78
2023-03-30T12:52:04.123Z,86113.94
2023-03-30T12:55:22.272Z,86117.41
2023-03-30T12:58:06.703Z,86120.16
2023-03-30T13:00:44.886Z,86119.47
2023-03-30T13:03:18.517Z,86116.00
2023-03-30T13:05:50.093Z,86098.78
2023-03-30T13:08:29.848Z,86116.72
2023-03-30T13:11:26.115Z,86116.03
2023-03-30T13:14:01.223Z,86107.06
2023-03-30T13:16:49.030Z,86100.19
2023-03-30T13:19:29.542Z,86078.13
2023-03-30T13:22:11.265Z,86075.38
2023-03-30T13:25:00.227Z,86090.53
2023-03-30T13:27:36.240Z,86064.34
2023-03-30T13:30:09.129Z,86079.50
2023-03-30T13:32:49.645Z,86073.28
2023-03-30T13:35:31.099Z,86069.84
2023-03-30T13:38:10.588Z,86075.38
2023-03-30T13:41:14.167Z,86067.09
2023-03-30T13:43:43.813Z,86058.78
2023-03-30T13:46:27.305Z,86038.13
2023-03-30T13:49:07.313Z,86065.03
2023-03-30T13:51:38.152Z,86024.34
2023-03-30T13:54:13.848Z,86053.94
2023-03-30T13:56:48.302Z,86052.53
2023-03-30T13:59:26.327Z,86011.84
2023-03-30T14:01:57.467Z,86049.69
2023-03-30T14:04:29.844Z,86029.69
2023-03-30T14:06:58.612Z,86047.53
2023-03-30T14:09:28.836Z,86028.22
2023-03-30T14:11:59.240Z,86041.22
2023-03-30T14:14:37.677Z,86039.09
2023-03-30T14:17:15.897Z,86029.53
2023-03-30T14:19:49.842Z,86037.72
2023-03-30T14:22:23.543Z,86030.91
2023-03-30T14:25:05.872Z,86008.94
2023-03-30T14:27:38.666Z,86041.91
2023-03-30T14:30:19.214Z,86044.69
2023-03-30T14:32:46.389Z,86020.66
2023-03-30T14:35:18.684Z,86033.72
2023-03-30T14:37:51.804Z,86030.22
2023-03-30T14:40:22.592Z,86033.72
2023-03-30T14:42:54.786Z,86042.00
2023-03-30T14:45:21.860Z,86043.41
2023-03-30T14:47:49.810Z,85980.78
2023-03-30T14:50:17.205Z,86018.56
2023-03-30T14:52:46.839Z,86024.06
2023-03-30T14:55:22.712Z,86015.13
2023-03-30T14:57:50.764Z,86020.63
2023-03-30T15:00:23.089Z,86008.94
2023-03-30T15:03:02.313Z,85987.59
2023-03-30T15:05:34.125Z,86006.19
2023-03-30T15:08:03.317Z,85951.16
2023-03-30T15:10:30.789Z,86028.91
2023-03-30T15:12:58.336Z,85951.19
2023-03-30T15:15:29.955Z,86004.91
2023-03-30T15:17:58.416Z,86026.88
2023-03-30T15:20:31.192Z,86043.50
2023-03-30T15:22:59.970Z,86040.06
2023-03-30T15:25:34.199Z,86043.53
2023-03-30T15:28:04.188Z,86045.59
2023-03-30T15:30:41.417Z,86045.63
2023-03-30T15:33:31.514Z,86021.56
2023-03-30T15:36:08.184Z,86040.13
2023-03-30T15:38:45.400Z,86031.22
2023-03-30T15:41:15.743Z,86042.25
2023-03-30T15:43:58.151Z,86029.84
2023-03-30T15:46:28.288Z,86016.75
2023-03-30T15:48:57.959Z,86044.97
2023-03-30T15:51:24.799Z,86051.19
2023-03-30T15:54:18.306Z,86020.19
2023-03-30T15:57:06.014Z,86048.44
2023-03-30T15:59:39.748Z,86014.00
2023-03-30T16:02:16.104Z,86049.81
2023-03-30T16:04:43.459Z,86056.03
2023-03-30T16:07:21.960Z,86060.16
2023-03-30T16:09:49.298Z,86051.88
2023-03-30T16:12:23.290Z,85973.41
2023-03-30T16:14:51.278Z,86061.50
2023-03-30T16:17:19.288Z,86042.97
2023-03-30T16:19:46.741Z,86045.69
2023-03-30T16:22:18.881Z,86022.25
2023-03-30T16:24:46.424Z,86057.41
2023-03-30T16:27:13.482Z,86045.03
2023-03-30T16:29:40.356Z,86046.38
2023-03-30T16:32:07.376Z,86009.19
2023-03-30T16:34:35.968Z,86049.16
2023-03-30T16:37:03.903Z,86049.81
2023-03-30T16:39:30.919Z,86042.25
2023-03-30T16:41:58.038Z,86018.84
2023-03-30T16:44:25.899Z,86038.13
2023-03-30T16:46:53.183Z,86039.50
2023-03-30T16:49:25.405Z,85998.19
2023-03-30T16:51:55.230Z,86029.84
2023-03-30T16:54:32.134Z,86022.25
2023-03-30T16:57:01.380Z,86025.72
2023-03-30T16:59:30.982Z,86019.53
2023-03-30T17:01:58.848Z,86024.38
2023-03-30T17:04:26.726Z,86018.84
2023-03-30T17:06:55.096Z,86013.34
2023-03-30T17:09:22.492Z,86014.72
2023-03-30T17:11:49.593Z,86006.47
2023-03-30T17:14:17.029Z,86003.72
2023-03-30T17:16:44.165Z,86029.91
2023-03-30T17:19:13.243Z,86007.88
2023-03-30T17:21:44.047Z,86024.38
2023-03-30T17:24:12.721Z,86027.16
2023-03-30T17:26:40.759Z,86031.97
2023-03-30T17:29:07.792Z,85995.47
2023-03-30T17:31:34.976Z,86012.00
2023-03-30T17:34:02.036Z,86020.25
2023-03-30T17:36:29.191Z,86020.25
2023-03-30T17:38:56.777Z,86028.50
2023-03-30T17:41:23.855Z,86028.50
2023-03-30T17:43:51.735Z,86017.47
2023-03-30T17:46:20.042Z,86025.75
2023-03-30T17:48:47.921Z,86016.06
2023-03-30T17:51:14.899Z,85982.34
2023-03-30T17:53:44.693Z,86011.25
2023-03-30T17:56:13.865Z,86042.25
2023-03-30T17:58:41.041Z,85994.00
2023-03-30T18:01:09.568Z,86047.75
2023-03-30T18:03:39.394Z,86042.22
2023-03-30T18:06:06.957Z,86051.16
2023-03-30T18:08:34.384Z,86034.59
2023-03-30T18:11:05.527Z,86044.19
2023-03-30T18:13:32.886Z,86043.50
2023-03-30T18:16:01.497Z,86058.63
2023-03-30T18:18:31.007Z,86051.75
2023-03-30T18:21:04.018Z,86048.97
2023-03-30T18:23:34.439Z,86044.75
2023-03-30T18:26:04.309Z,86055.78
2023-03-30T18:28:31.982Z,86050.94
2023-03-30T18:31:00.858Z,86028.19
2023-03-30T18:33:28.703Z,86054.31
2023-03-30T18:35:59.775Z,86050.19
2023-03-30T18:38:32.542Z,86050.16
2023-03-30T18:41:03.277Z,86051.50
2023-03-30T18:43:30.853Z,86045.97
2023-03-30T18:46:01.760Z,86026.66
2023-03-30T18:48:38.165Z,86030.84
2023-03-30T18:51:05.070Z,86054.22
2023-03-30T18:53:37.094Z,86045.97
2023-03-30T18:56:07.445Z,86036.28
2023-03-30T18:58:41.721Z,86048.69
2023-03-30T19:01:09.364Z,86012.03
2023-03-30T19:03:40.796Z,85976.91
2023-03-30T19:06:19.826Z,86032.09
2023-03-30T19:08:47.161Z,86006.59
2023-03-30T19:11:23.448Z,86036.22
2023-03-30T19:13:51.642Z,86018.25
2023-03-30T19:16:18.891Z,86014.78
2023-03-30T19:18:45.915Z,85990.69
2023-03-30T19:21:17.782Z,85987.22
2023-03-30T19:23:45.026Z,85993.41
2023-03-30T19:26:12.861Z,85987.84
2023-03-30T19:28:40.828Z,86009.22
2023-03-30T19:31:13.438Z,86016.84
2023-03-30T19:33:40.768Z,85992.03
2023-03-30T19:36:08.350Z,86009.94
2023-03-30T19:38:35.883Z,85976.78
2023-03-30T19:41:05.044Z,86008.56
2023-03-30T19:43:32.302Z,86007.19
2023-03-30T19:46:00.229Z,85974.78
2023-03-30T19:48:27.670Z,85996.16
2023-03-30T19:50:54.678Z,85976.88
2023-03-30T19:53:21.785Z,85991.31
2023-03-30T19:55:48.788Z,85998.88
2023-03-30T19:58:16.238Z,85959.50
2023-03-30T20:00:43.891Z,86005.69
2023-03-30T20:03:12.598Z,85938.13
2023-03-30T20:05:40.067Z,85954.69
2023-03-30T20:08:17.366Z,85994.72
2023-03-30T20:10:50.115Z,85958.16
2023-03-30T20:13:17.266Z,85974.78
2023-03-30T20:15:45.512Z,85980.16
2023-03-30T20:18:15.692Z,85957.44
2023-03-30T20:20:42.721Z,85974.72
2023-03-30T20:23:09.781Z,85957.44
2023-03-30T20:25:36.873Z,85982.34
2023-03-30T20:28:03.852Z,85960.31
2023-03-30T20:30:30.919Z,85987.84
2023-03-30T20:33:07.465Z,85982.34
2023-03-30T20:35:37.211Z,85970.00
2023-03-30T20:38:06.170Z,85952.75
2023-03-30T20:40:34.867Z,85972.69
2023-03-30T20:43:10.299Z,85936.91
2023-03-30T20:45:46.566Z,85975.53
2023-03-30T20:48:26.531Z,85966.63
2023-03-30T20:50:55.398Z,85942.47
2023-03-30T20:53:23.200Z,85976.91
2023-03-30T20:55:50.272Z,85945.22
2023-03-30T20:58:17.436Z,85960.44
2023-03-30T21:00:44.404Z,85971.41
2023-03-30T21:03:14.282Z,85953.50
2023-03-30T21:05:41.498Z,85924.56
2023-03-30T21:08:08.436Z,85932.84
2023-03-30T21:10:35.628Z,85963.25
2023-03-30T21:13:02.647Z,85945.38
2023-03-30T21:15:29.762Z,85928.81
2023-03-30T21:17:56.808Z,85873.66
2023-03-30T21:20:23.846Z,85945.44
2023-03-30T21:22:51.717Z,85946.81
2023-03-30T21:25:18.844Z,85939.94
2023-03-30T21:27:45.857Z,85936.44
2023-03-30T21:30:14.498Z,85934.44
2023-03-30T21:32:41.598Z,85929.63
2023-03-30T21:35:09.568Z,85938.56
2023-03-30T21:37:36.740Z,85917.84
2023-03-30T21:40:04.652Z,85941.28
2023-03-30T21:42:34.388Z,85912.34
2023-03-30T21:45:01.355Z,85935.81
2023-03-30T21:47:28.537Z,85891.69
2023-03-30T21:49:55.556Z,85860.06
2023-03-30T21:52:22.487Z,85920.69
2023-03-30T21:54:49.470Z,85913.13
2023-03-30T21:57:16.497Z,85926.25
2023-03-30T21:59:43.580Z,85900.69
2023-03-30T22:02:10.640Z,85897.25
2023-03-30T22:04:37.847Z,85923.44
2023-03-30T22:07:05.116Z,85879.44
2023-03-30T22:09:32.215Z,85911.13
2023-03-30T22:11:59.250Z,85897.31
2023-03-30T22:14:26.331Z,85913.19
2023-03-30T22:16:58.173Z,85883.56
2023-03-30T22:19:25.219Z,85886.28
2023-03-30T22:21:52.456Z,85919.34
2023-03-30T22:24:20.496Z,85898.72
2023-03-30T22:26:49.329Z,85922.13
2023-03-30T22:29:16.475Z,85922.84
2023-03-30T22:31:43.471Z,85924.94
2023-03-30T22:34:10.406Z,85908.44
2023-03-30T22:36:37.379Z,85922.22
2023-03-30T22:39:04.809Z,85883.66
2023-03-30T22:41:31.915Z,85921.53
2023-03-30T22:43:59.350Z,85900.16
2023-03-30T22:46:27.697Z,85922.25
2023-03-30T22:48:57.911Z,85929.09
2023-03-30T22:51:28.679Z,85887.75
2023-03-30T22:54:00.288Z,85889.81
2023-03-30T22:56:31.447Z,85890.50
2023-03-30T22:59:00.925Z,85913.94
2023-03-30T23:01:32.580Z,85910.50
2023-03-30T23:04:00.232Z,85915.28
2023-03-30T23:06:27.234Z,85914.63
2023-03-30T23:08:54.709Z,85900.84
2023-03-30T23:11:21.789Z,85887.75
2023-03-30T23:13:49.335Z,85911.22
2023-03-30T23:16:16.479Z,85907.03
2023-03-30T23:18:43.717Z,85869.91
2023-03-30T23:21:11.364Z,85900.19
2023-03-30T23:23:39.195Z,85900.97
2023-03-30T23:26:09.917Z,85890.66
2023-03-30T23:28:39.313Z,85900.25
2023-03-30T23:31:12.422Z,85898.88
2023-03-30T23:33:43.368Z,85893.38
2023-03-30T23:36:14.582Z,85887.88
2023-03-30T23:38:41.762Z,85886.50
2023-03-30T23:41:09.261Z,85887.19
2023-03-30T23:43:36.410Z,85895.44
2023-03-30T23:46:04.194Z,85886.50
2023-03-30T23:48:32.167Z,85869.25
2023-03-30T23:50:59.353Z,85872.72
2023-03-30T23:53:29.077Z,85892.69
2023-03-30T23:55:56.193Z,85883.00
2023-03-30T23:58:23.329Z,85880.28
